createdAt,value
2018-06-09T00:00:28.476Z,24.00
2018-06-09T00:01:00.094Z,23.99
2018-06-09T00:01:31.687Z,23.98
2018-06-09T00:02:03.270Z,23.98
2018-06-09T00:02:34.849Z,23.98
2018-06-09T00:03:06.430Z,23.97
2018-06-09T00:03:38.000Z,23.97
2018-06-09T00:04:09.591Z,23.95
2018-06-09T00:04:41.177Z,23.95
2018-06-09T00:05:12.763Z,23.96
2018-06-09T00:05:44.386Z,23.96
2018-06-09T00:06:15.993Z,23.97
2018-06-09T00:06:47.574Z,23.98
2018-06-09T00:07:19.165Z,23.99
2018-06-09T00:07:50.777Z,23.99
2018-06-09T00:08:22.361Z,24.00
2018-06-09T00:08:53.933Z,24.03
2018-06-09T00:09:25.521Z,24.05
2018-06-09T00:09:57.101Z,24.03
2018-06-09T00:10:28.672Z,24.01
2018-06-09T00:11:00.283Z,23.98
2018-06-09T00:11:31.889Z,23.94
2018-06-09T00:12:03.501Z,23.89
2018-06-09T00:12:35.109Z,23.87
2018-06-09T00:13:06.713Z,23.86
2018-06-09T00:13:38.294Z,23.85
2018-06-09T00:14:09.897Z,23.85
2018-06-09T00:14:41.491Z,23.84
2018-06-09T00:15:13.097Z,23.84
2018-06-09T00:15:44.754Z,23.83
2018-06-09T00:16:16.351Z,23.71
2018-06-09T00:16:47.924Z,23.81
2018-06-09T00:17:19.520Z,23.81
2018-06-09T00:17:51.091Z,23.81
2018-06-09T00:18:22.693Z,23.81
2018-06-09T00:18:54.281Z,23.79
2018-06-09T00:19:25.893Z,23.80
2018-06-09T00:19:57.491Z,23.80
2018-06-09T00:20:29.097Z,23.80
2018-06-09T00:21:00.753Z,23.80
2018-06-09T00:21:32.361Z,23.80
2018-06-09T00:22:03.939Z,23.79
2018-06-09T00:22:35.523Z,23.79
2018-06-09T00:23:07.103Z,23.79
2018-06-09T00:23:38.696Z,23.78
2018-06-09T00:24:10.301Z,23.78
2018-06-09T00:24:41.909Z,23.78
2018-06-09T00:25:13.494Z,23.76
2018-06-09T00:25:45.088Z,23.78
2018-06-09T00:26:16.745Z,23.78
2018-06-09T00:26:48.356Z,23.77
2018-06-09T00:27:19.928Z,23.78
2018-06-09T00:27:51.511Z,23.78
2018-06-09T00:28:23.088Z,23.77
2018-06-09T00:28:54.700Z,23.78
2018-06-09T00:29:26.304Z,23.78
2018-06-09T00:29:57.884Z,23.78
2018-06-09T00:30:29.452Z,23.79
2018-06-09T00:31:01.064Z,23.78
2018-06-09T00:31:32.669Z,23.78
2018-06-09T00:32:04.300Z,23.79
2018-06-09T00:32:35.876Z,23.78
2018-06-09T00:33:07.453Z,23.78
2018-06-09T00:33:39.020Z,23.78
2018-06-09T00:34:10.597Z,23.79
2018-06-09T00:34:42.197Z,23.79
2018-06-09T00:35:13.801Z,23.79
2018-06-09T00:35:45.389Z,23.80
2018-06-09T00:36:16.960Z,23.79
2018-06-09T00:36:48.536Z,23.79
2018-06-09T00:37:20.173Z,23.79
2018-06-09T00:37:51.781Z,23.79
2018-06-09T00:38:23.363Z,23.79
2018-06-09T00:38:54.965Z,23.79
2018-06-09T00:39:26.578Z,23.80
2018-06-09T00:39:58.180Z,23.80
2018-06-09T00:40:29.761Z,23.81
2018-06-09T00:41:01.361Z,23.81
2018-06-09T00:41:32.984Z,23.81
2018-06-09T00:42:04.569Z,23.80
2018-06-09T00:42:36.174Z,23.81
2018-06-09T00:43:07.836Z,23.81
2018-06-09T00:43:39.406Z,23.81
2018-06-09T00:44:10.985Z,23.82
2018-06-09T00:44:43.581Z,23.83
2018-06-09T00:45:15.162Z,23.82
2018-06-09T00:45:46.770Z,23.82
2018-06-09T00:46:18.382Z,23.81
2018-06-09T00:46:50.025Z,23.81
2018-06-09T00:47:21.630Z,23.81
2018-06-09T00:47:53.237Z,23.80
2018-06-09T00:48:24.812Z,23.81
2018-06-09T00:48:56.408Z,23.80
2018-06-09T00:49:27.990Z,23.80
2018-06-09T00:49:59.596Z,23.81
2018-06-09T00:50:31.172Z,23.81
2018-06-09T00:51:02.773Z,23.80
2018-06-09T00:51:34.385Z,23.81
2018-06-09T00:52:06.034Z,23.80
2018-06-09T00:52:37.631Z,23.80
2018-06-09T00:53:09.245Z,23.79
2018-06-09T00:53:40.837Z,23.78
2018-06-09T00:54:12.441Z,23.79
2018-06-09T00:54:44.065Z,23.79
2018-06-09T00:55:15.655Z,23.79
2018-06-09T00:55:47.241Z,23.77
2018-06-09T00:56:18.850Z,23.78
2018-06-09T00:56:50.451Z,23.78
2018-06-09T00:57:22.061Z,23.78
2018-06-09T00:57:53.669Z,23.77
2018-06-09T00:58:25.257Z,23.77
2018-06-09T00:58:56.850Z,23.77
2018-06-09T00:59:28.497Z,23.77
2018-06-09T01:00:00.092Z,23.77
2018-06-09T01:00:31.693Z,23.76
2018-06-09T01:01:03.269Z,23.75
2018-06-09T01:01:34.860Z,23.75
2018-06-09T01:02:06.468Z,23.75
2018-06-09T01:02:38.065Z,23.74
2018-06-09T01:03:09.640Z,23.75
2018-06-09T01:03:41.249Z,23.75
2018-06-09T01:04:12.856Z,23.75
2018-06-09T01:04:44.472Z,23.75
2018-06-09T01:05:16.048Z,23.74
2018-06-09T01:05:47.640Z,23.76
2018-06-09T01:06:19.220Z,23.77
2018-06-09T01:06:50.833Z,23.79
2018-06-09T01:07:22.437Z,23.80
2018-06-09T01:07:54.128Z,23.80
2018-06-09T01:08:25.733Z,23.81
2018-06-09T01:08:57.332Z,23.81
2018-06-09T01:09:28.938Z,23.82
2018-06-09T01:10:00.546Z,23.82
2018-06-09T01:10:32.159Z,23.81
2018-06-09T01:11:03.765Z,23.82
2018-06-09T01:11:35.349Z,23.79
2018-06-09T01:12:07.098Z,23.80
2018-06-09T01:12:38.671Z,23.81
2018-06-09T01:13:10.250Z,23.80
2018-06-09T01:13:41.826Z,23.80
2018-06-09T01:14:13.400Z,23.79
2018-06-09T01:14:44.977Z,23.79
2018-06-09T01:15:16.566Z,23.79
2018-06-09T01:15:48.142Z,23.80
2018-06-09T01:16:19.745Z,23.79
2018-06-09T01:16:51.366Z,23.79
2018-06-09T01:17:22.946Z,23.79
2018-06-09T01:17:54.530Z,23.78
2018-06-09T01:18:26.100Z,23.79
2018-06-09T01:18:57.695Z,23.78
2018-06-09T01:19:29.301Z,23.78
2018-06-09T01:20:00.890Z,23.78
2018-06-09T01:20:32.477Z,23.77
2018-06-09T01:21:04.062Z,23.77
2018-06-09T01:21:35.665Z,23.76
2018-06-09T01:22:07.293Z,23.76
2018-06-09T01:22:38.860Z,23.76
2018-06-09T01:23:10.466Z,23.76
2018-06-09T01:23:42.050Z,23.76
2018-06-09T01:24:13.676Z,23.76
2018-06-09T01:24:45.283Z,23.75
2018-06-09T01:25:16.888Z,23.75
2018-06-09T01:25:48.473Z,23.75
2018-06-09T01:26:20.056Z,23.75
2018-06-09T01:26:51.687Z,23.75
2018-06-09T01:27:23.302Z,23.74
2018-06-09T01:27:54.887Z,23.74
2018-06-09T01:28:26.489Z,23.74
2018-06-09T01:28:58.114Z,23.74
2018-06-09T01:29:29.753Z,23.73
2018-06-09T01:30:01.338Z,23.73
2018-06-09T01:30:32.908Z,23.71
2018-06-09T01:31:04.509Z,23.73
2018-06-09T01:31:36.084Z,23.73
2018-06-09T01:32:07.669Z,23.73
2018-06-09T01:32:39.245Z,23.73
2018-06-09T01:33:10.920Z,23.72
2018-06-09T01:33:42.495Z,23.73
2018-06-09T01:34:14.138Z,23.71
2018-06-09T01:34:45.750Z,23.72
2018-06-09T01:35:17.356Z,23.72
2018-06-09T01:35:48.938Z,23.71
2018-06-09T01:36:20.537Z,23.72
2018-06-09T01:36:52.108Z,23.70
2018-06-09T01:37:23.785Z,23.72
2018-06-09T01:37:55.369Z,23.72
2018-06-09T01:38:26.959Z,23.72
2018-06-09T01:38:58.605Z,23.71
2018-06-09T01:39:30.217Z,23.71
2018-06-09T01:40:01.794Z,23.71
2018-06-09T01:40:33.396Z,23.71
2018-06-09T01:41:04.976Z,23.71
2018-06-09T01:41:36.548Z,23.70
2018-06-09T01:42:08.127Z,23.70
2018-06-09T01:42:39.774Z,23.69
2018-06-09T01:43:11.357Z,23.69
2018-06-09T01:43:42.962Z,23.69
2018-06-09T01:44:14.591Z,23.69
2018-06-09T01:44:46.174Z,23.69
2018-06-09T01:45:17.775Z,23.69
2018-06-09T01:45:49.358Z,23.69
2018-06-09T01:46:20.936Z,23.68
2018-06-09T01:46:52.514Z,23.69
2018-06-09T01:47:24.117Z,23.69
2018-06-09T01:47:55.705Z,23.69
2018-06-09T01:48:27.290Z,23.69
2018-06-09T01:48:58.879Z,23.69
2018-06-09T01:49:30.512Z,23.70
2018-06-09T01:50:02.109Z,23.70
2018-06-09T01:50:33.694Z,23.70
2018-06-09T01:51:05.299Z,23.71
2018-06-09T01:51:36.886Z,23.71
2018-06-09T01:52:08.495Z,23.71
2018-06-09T01:52:40.074Z,23.71
2018-06-09T01:53:11.749Z,23.71
2018-06-09T01:53:43.327Z,23.70
2018-06-09T01:54:14.929Z,23.70
2018-06-09T01:54:46.538Z,23.68
2018-06-09T01:55:18.122Z,23.69
2018-06-09T01:55:49.784Z,23.69
2018-06-09T01:56:21.374Z,23.69
2018-06-09T01:56:52.951Z,23.69
2018-06-09T01:57:24.529Z,23.69
2018-06-09T01:57:56.125Z,23.68
2018-06-09T01:58:27.778Z,23.68
2018-06-09T01:58:59.369Z,23.67
2018-06-09T01:59:30.960Z,23.67
2018-06-09T02:00:02.556Z,23.67
2018-06-09T02:00:34.161Z,23.67
2018-06-09T02:01:05.769Z,23.66
2018-06-09T02:01:37.411Z,23.66
2018-06-09T02:02:08.984Z,23.67
2018-06-09T02:02:40.641Z,23.66
2018-06-09T02:03:12.249Z,23.66
2018-06-09T02:03:43.844Z,23.66
2018-06-09T02:04:15.426Z,23.67
2018-06-09T02:04:47.029Z,23.67
2018-06-09T02:05:18.608Z,23.67
2018-06-09T02:05:50.210Z,23.66
2018-06-09T02:06:21.801Z,23.66
2018-06-09T02:06:53.393Z,23.66
2018-06-09T02:07:24.988Z,23.66
2018-06-09T02:07:56.608Z,23.66
2018-06-09T02:08:28.190Z,23.67
2018-06-09T02:08:59.830Z,23.67
2018-06-09T02:09:31.413Z,23.66
2018-06-09T02:10:03.009Z,23.67
2018-06-09T02:10:34.622Z,23.66
2018-06-09T02:11:06.209Z,23.68
2018-06-09T02:11:37.818Z,23.68
2018-06-09T02:12:09.426Z,23.69
2018-06-09T02:12:40.997Z,23.69
2018-06-09T02:13:12.595Z,23.70
2018-06-09T02:13:44.186Z,23.72
2018-06-09T02:14:15.807Z,23.74
2018-06-09T02:14:47.385Z,23.78
2018-06-09T02:15:18.969Z,23.83
2018-06-09T02:15:50.574Z,23.86
2018-06-09T02:16:22.221Z,23.86
2018-06-09T02:16:53.870Z,23.85
2018-06-09T02:17:25.444Z,23.85
2018-06-09T02:17:57.025Z,23.84
2018-06-09T02:18:28.645Z,23.83
2018-06-09T02:19:00.219Z,23.82
2018-06-09T02:19:31.826Z,23.83
2018-06-09T02:20:03.410Z,23.83
2018-06-09T02:20:35.014Z,23.83
2018-06-09T02:21:06.611Z,23.80
2018-06-09T02:21:38.197Z,23.80
2018-06-09T02:22:09.807Z,23.79
2018-06-09T02:22:41.390Z,23.78
2018-06-09T02:23:12.973Z,23.77
2018-06-09T02:23:44.590Z,23.75
2018-06-09T02:24:16.197Z,23.73
2018-06-09T02:24:47.791Z,23.72
2018-06-09T02:25:19.402Z,23.70
2018-06-09T02:25:50.985Z,23.68
2018-06-09T02:26:22.585Z,23.68
2018-06-09T02:26:54.164Z,23.66
2018-06-09T02:27:25.769Z,23.65
2018-06-09T02:27:57.341Z,23.63
2018-06-09T02:28:28.926Z,23.63
2018-06-09T02:29:00.509Z,23.62
2018-06-09T02:29:32.113Z,23.60
2018-06-09T02:30:03.727Z,23.58
2018-06-09T02:30:35.338Z,23.59
2018-06-09T02:31:06.936Z,23.58
2018-06-09T02:31:38.561Z,23.58
2018-06-09T02:32:10.146Z,23.58
2018-06-09T02:32:41.729Z,23.58
2018-06-09T02:33:13.320Z,23.57
2018-06-09T02:33:44.902Z,23.57
2018-06-09T02:34:16.481Z,23.57
2018-06-09T02:34:48.077Z,23.55
2018-06-09T02:35:19.714Z,23.56
2018-06-09T02:35:51.292Z,23.56
2018-06-09T02:36:22.884Z,23.55
2018-06-09T02:36:54.475Z,23.55
2018-06-09T02:37:26.078Z,23.55
2018-06-09T02:37:57.672Z,23.54
2018-06-09T02:38:29.276Z,23.55
2018-06-09T02:39:00.852Z,23.54
2018-06-09T02:39:32.469Z,23.53
2018-06-09T02:40:04.040Z,23.53
2018-06-09T02:40:35.705Z,23.53
2018-06-09T02:41:07.293Z,23.53
2018-06-09T02:41:38.894Z,23.52
2018-06-09T02:42:10.481Z,23.52
2018-06-09T02:42:42.058Z,23.52
2018-06-09T02:43:13.632Z,23.52
2018-06-09T02:43:45.217Z,23.52
2018-06-09T02:44:16.812Z,23.51
2018-06-09T02:44:48.422Z,23.51
2018-06-09T02:45:20.014Z,23.51
2018-06-09T02:45:51.633Z,23.51
2018-06-09T02:46:23.210Z,23.51
2018-06-09T02:46:54.801Z,23.51
2018-06-09T02:47:26.409Z,23.50
2018-06-09T02:47:57.980Z,23.50
2018-06-09T02:48:29.627Z,23.50
2018-06-09T02:49:01.224Z,23.50
2018-06-09T02:49:32.890Z,23.49
2018-06-09T02:50:04.480Z,23.49
2018-06-09T02:50:36.094Z,23.48
2018-06-09T02:51:07.663Z,23.48
2018-06-09T02:51:39.261Z,23.47
2018-06-09T02:52:10.866Z,23.47
2018-06-09T02:52:42.464Z,23.47
2018-06-09T02:53:14.069Z,23.47
2018-06-09T02:53:45.757Z,23.46
2018-06-09T02:54:17.355Z,23.46
2018-06-09T02:54:48.985Z,23.45
2018-06-09T02:55:20.566Z,23.46
2018-06-09T02:55:52.174Z,23.45
2018-06-09T02:56:23.752Z,23.45
2018-06-09T02:56:55.346Z,23.45
2018-06-09T02:57:26.942Z,23.44
2018-06-09T02:57:58.540Z,23.44
2018-06-09T02:58:30.113Z,23.46
2018-06-09T02:59:01.702Z,23.47
2018-06-09T02:59:33.357Z,23.48
2018-06-09T03:00:04.941Z,23.50
2018-06-09T03:00:36.529Z,23.52
2018-06-09T03:01:08.103Z,23.52
2018-06-09T03:01:39.685Z,23.54
2018-06-09T03:02:11.252Z,23.54
2018-06-09T03:02:42.869Z,23.54
2018-06-09T03:03:14.478Z,23.53
2018-06-09T03:03:46.098Z,23.53
2018-06-09T03:04:17.686Z,23.55
2018-06-09T03:04:49.296Z,23.54
2018-06-09T03:05:20.887Z,23.53
2018-06-09T03:05:52.501Z,23.53
2018-06-09T03:06:24.109Z,23.53
2018-06-09T03:06:55.703Z,23.52
2018-06-09T03:07:27.305Z,23.52
2018-06-09T03:07:58.894Z,23.52
2018-06-09T03:08:30.481Z,23.51
2018-06-09T03:09:02.081Z,23.51
2018-06-09T03:09:33.685Z,23.49
2018-06-09T03:10:05.271Z,23.49
2018-06-09T03:10:36.898Z,23.48
2018-06-09T03:11:08.478Z,23.48
2018-06-09T03:11:40.090Z,23.46
2018-06-09T03:12:11.682Z,23.47
2018-06-09T03:12:43.272Z,23.47
2018-06-09T03:13:14.878Z,23.47
2018-06-09T03:13:46.460Z,23.46
2018-06-09T03:14:18.057Z,23.47
2018-06-09T03:14:49.656Z,23.47
2018-06-09T03:15:21.237Z,23.38
2018-06-09T03:15:52.881Z,23.46
2018-06-09T03:16:24.469Z,23.46
2018-06-09T03:16:56.068Z,23.45
2018-06-09T03:17:27.676Z,23.46
2018-06-09T03:17:59.264Z,23.45
2018-06-09T03:18:30.831Z,23.46
2018-06-09T03:19:02.417Z,23.46
2018-06-09T03:19:34.028Z,23.46
2018-06-09T03:20:05.596Z,23.46
2018-06-09T03:20:37.205Z,23.46
2018-06-09T03:21:08.809Z,23.46
2018-06-09T03:21:40.413Z,23.46
2018-06-09T03:22:12.009Z,23.46
2018-06-09T03:22:43.602Z,23.46
2018-06-09T03:23:15.168Z,23.46
2018-06-09T03:23:46.736Z,23.46
2018-06-09T03:24:18.311Z,23.46
2018-06-09T03:24:49.961Z,23.45
2018-06-09T03:25:21.546Z,23.45
2018-06-09T03:25:53.145Z,23.45
2018-06-09T03:26:24.724Z,23.46
2018-06-09T03:26:56.418Z,23.48
2018-06-09T03:27:28.026Z,23.49
2018-06-09T03:27:59.633Z,23.51
2018-06-09T03:28:31.227Z,23.51
2018-06-09T03:29:02.834Z,23.52
2018-06-09T03:29:34.432Z,23.51
2018-06-09T03:30:06.086Z,23.52
2018-06-09T03:30:37.697Z,23.51
2018-06-09T03:31:09.304Z,23.51
2018-06-09T03:31:40.889Z,23.50
2018-06-09T03:32:12.460Z,23.49
2018-06-09T03:32:44.039Z,23.48
2018-06-09T03:33:15.650Z,23.48
2018-06-09T03:33:47.294Z,23.47
2018-06-09T03:34:18.941Z,23.47
2018-06-09T03:34:50.632Z,23.46
2018-06-09T03:35:22.259Z,23.46
2018-06-09T03:35:53.867Z,23.46
2018-06-09T03:36:25.478Z,23.46
2018-06-09T03:36:57.052Z,23.45
2018-06-09T03:37:28.638Z,23.45
2018-06-09T03:38:00.221Z,23.45
2018-06-09T03:38:31.829Z,23.45
2018-06-09T03:39:03.413Z,23.45
2018-06-09T03:39:34.985Z,23.45
2018-06-09T03:40:06.560Z,23.45
2018-06-09T03:40:38.182Z,23.45
2018-06-09T03:41:09.762Z,23.44
2018-06-09T03:41:41.365Z,23.44
2018-06-09T03:42:12.960Z,23.44
2018-06-09T03:42:44.579Z,23.44
2018-06-09T03:43:16.197Z,23.44
2018-06-09T03:43:47.796Z,23.43
2018-06-09T03:44:19.382Z,23.43
2018-06-09T03:44:50.970Z,23.43
2018-06-09T03:45:22.540Z,23.43
2018-06-09T03:45:54.201Z,23.42
2018-06-09T03:46:25.786Z,23.43
2018-06-09T03:46:57.394Z,23.42
2018-06-09T03:47:28.967Z,23.42
2018-06-09T03:48:00.546Z,23.42
2018-06-09T03:48:32.152Z,23.42
2018-06-09T03:49:03.724Z,23.42
2018-06-09T03:49:35.292Z,23.42
2018-06-09T03:50:06.943Z,23.42
2018-06-09T03:50:38.584Z,23.42
2018-06-09T03:51:10.120Z,23.42
2018-06-09T03:51:41.725Z,23.41
2018-06-09T03:52:13.341Z,23.42
2018-06-09T03:52:44.920Z,23.42
2018-06-09T03:53:16.520Z,23.42
2018-06-09T03:53:48.113Z,23.40
2018-06-09T03:54:19.688Z,23.42
2018-06-09T03:54:51.264Z,23.33
2018-06-09T03:55:22.849Z,23.43
2018-06-09T03:55:54.454Z,23.43
2018-06-09T03:56:26.052Z,23.43
2018-06-09T03:56:57.628Z,23.43
2018-06-09T03:57:29.205Z,23.43
2018-06-09T03:58:00.808Z,23.43
2018-06-09T03:58:32.394Z,23.42
2018-06-09T03:59:03.998Z,23.45
2018-06-09T03:59:35.596Z,23.46
2018-06-09T04:00:07.180Z,23.47
2018-06-09T04:00:38.789Z,23.48
2018-06-09T04:01:10.441Z,23.49
2018-06-09T04:01:42.030Z,23.50
2018-06-09T04:02:13.617Z,23.52
2018-06-09T04:02:45.184Z,23.52
2018-06-09T04:03:16.765Z,23.52
2018-06-09T04:03:48.384Z,23.52
2018-06-09T04:04:19.960Z,23.52
2018-06-09T04:04:51.538Z,23.53
2018-06-09T04:05:23.123Z,23.52
2018-06-09T04:05:54.729Z,23.49
2018-06-09T04:06:26.314Z,23.51
2018-06-09T04:06:57.907Z,23.51
2018-06-09T04:07:29.477Z,23.51
2018-06-09T04:08:01.056Z,23.50
2018-06-09T04:08:32.665Z,23.49
2018-06-09T04:09:04.308Z,23.49
2018-06-09T04:09:35.928Z,23.49
2018-06-09T04:10:07.497Z,23.49
2018-06-09T04:10:39.082Z,23.49
2018-06-09T04:11:10.666Z,23.49
2018-06-09T04:11:42.305Z,23.49
2018-06-09T04:12:13.913Z,23.48
2018-06-09T04:12:45.523Z,23.48
2018-06-09T04:13:17.129Z,23.49
2018-06-09T04:13:48.713Z,23.48
2018-06-09T04:14:20.348Z,23.48
2018-06-09T04:14:51.961Z,23.48
2018-06-09T04:15:23.555Z,23.48
2018-06-09T04:15:55.144Z,23.48
2018-06-09T04:16:26.735Z,23.48
2018-06-09T04:16:58.385Z,23.46
2018-06-09T04:17:29.977Z,23.47
2018-06-09T04:18:01.544Z,23.47
2018-06-09T04:18:33.135Z,23.48
2018-06-09T04:19:04.741Z,23.47
2018-06-09T04:19:36.380Z,23.47
2018-06-09T04:20:07.986Z,23.47
2018-06-09T04:20:39.660Z,23.47
2018-06-09T04:21:11.224Z,23.47
2018-06-09T04:21:42.838Z,23.47
2018-06-09T04:22:14.445Z,23.47
2018-06-09T04:22:46.086Z,23.47
2018-06-09T04:23:17.670Z,23.47
2018-06-09T04:23:49.253Z,23.46
2018-06-09T04:24:20.835Z,23.47
2018-06-09T04:24:52.403Z,23.46
2018-06-09T04:25:23.975Z,23.46
2018-06-09T04:25:55.551Z,23.46
2018-06-09T04:26:27.144Z,23.46
2018-06-09T04:26:58.749Z,23.46
2018-06-09T04:27:30.333Z,23.46
2018-06-09T04:28:01.918Z,23.45
2018-06-09T04:28:33.505Z,23.45
2018-06-09T04:29:05.077Z,23.44
2018-06-09T04:29:36.681Z,23.45
2018-06-09T04:30:08.270Z,23.45
2018-06-09T04:30:39.874Z,23.45
2018-06-09T04:31:11.493Z,23.46
2018-06-09T04:31:43.060Z,23.46
2018-06-09T04:32:14.640Z,23.46
2018-06-09T04:32:46.233Z,23.46
2018-06-09T04:33:17.841Z,23.46
2018-06-09T04:33:49.449Z,23.47
2018-06-09T04:34:21.036Z,23.47
2018-06-09T04:34:52.618Z,23.48
2018-06-09T04:35:24.225Z,23.49
2018-06-09T04:35:55.866Z,23.51
2018-06-09T04:36:27.478Z,23.52
2018-06-09T04:36:59.086Z,23.53
2018-06-09T04:37:30.697Z,23.53
2018-06-09T04:38:02.301Z,23.54
2018-06-09T04:38:33.875Z,23.55
2018-06-09T04:39:05.525Z,23.56
2018-06-09T04:39:37.096Z,23.57
2018-06-09T04:40:08.682Z,23.59
2018-06-09T04:40:40.248Z,23.59
2018-06-09T04:41:11.882Z,23.58
2018-06-09T04:41:43.455Z,23.58
2018-06-09T04:42:15.024Z,23.58
2018-06-09T04:42:46.605Z,23.59
2018-06-09T04:43:18.200Z,23.60
2018-06-09T04:43:49.837Z,23.60
2018-06-09T04:44:21.422Z,23.61
2018-06-09T04:44:53.029Z,23.62
2018-06-09T04:45:24.633Z,23.63
2018-06-09T04:45:56.232Z,23.64
2018-06-09T04:46:27.890Z,23.66
2018-06-09T04:46:59.477Z,23.66
2018-06-09T04:47:31.092Z,23.66
2018-06-09T04:48:02.697Z,23.66
2018-06-09T04:48:34.301Z,23.67
2018-06-09T04:49:05.909Z,23.67
2018-06-09T04:49:37.494Z,23.67
2018-06-09T04:50:09.077Z,23.68
2018-06-09T04:50:40.645Z,23.69
2018-06-09T04:51:12.236Z,23.69
2018-06-09T04:51:43.894Z,23.69
2018-06-09T04:52:15.563Z,23.69
2018-06-09T04:52:47.146Z,23.68
2018-06-09T04:53:18.744Z,23.67
2018-06-09T04:53:50.355Z,23.68
2018-06-09T04:54:21.969Z,23.69
2018-06-09T04:54:53.557Z,23.69
2018-06-09T04:55:25.148Z,23.68
2018-06-09T04:55:56.741Z,23.68
2018-06-09T04:56:28.370Z,23.68
2018-06-09T04:56:59.954Z,23.69
2018-06-09T04:57:31.532Z,23.69
2018-06-09T04:58:03.110Z,23.69
2018-06-09T04:58:34.701Z,23.70
2018-06-09T04:59:06.284Z,23.70
2018-06-09T04:59:37.875Z,23.70
2018-06-09T05:00:09.493Z,23.70
2018-06-09T05:00:41.072Z,23.70
2018-06-09T05:01:12.658Z,23.70
2018-06-09T05:01:44.281Z,23.70
2018-06-09T05:02:15.909Z,23.69
2018-06-09T05:02:47.484Z,23.70
2018-06-09T05:03:19.056Z,23.69
2018-06-09T05:03:50.633Z,23.69
2018-06-09T05:04:22.241Z,23.69
2018-06-09T05:04:53.820Z,23.70
2018-06-09T05:05:25.402Z,23.70
2018-06-09T05:05:56.985Z,23.70
2018-06-09T05:06:28.575Z,23.70
2018-06-09T05:07:00.166Z,23.70
2018-06-09T05:07:31.794Z,23.71
2018-06-09T05:08:03.388Z,23.71
2018-06-09T05:08:34.973Z,23.71
2018-06-09T05:09:06.622Z,23.70
2018-06-09T05:09:38.195Z,23.71
2018-06-09T05:10:09.773Z,23.70
2018-06-09T05:10:41.354Z,23.70
2018-06-09T05:11:12.929Z,23.70
2018-06-09T05:11:44.552Z,23.70
2018-06-09T05:12:16.132Z,23.70
2018-06-09T05:12:47.734Z,23.70
2018-06-09T05:13:19.318Z,23.69
2018-06-09T05:13:50.889Z,23.70
2018-06-09T05:14:22.474Z,23.70
2018-06-09T05:14:54.044Z,23.70
2018-06-09T05:15:25.636Z,23.70
2018-06-09T05:15:57.246Z,23.70
2018-06-09T05:16:28.968Z,23.70
2018-06-09T05:17:00.558Z,23.70
2018-06-09T05:17:32.165Z,23.70
2018-06-09T05:18:03.770Z,23.70
2018-06-09T05:18:35.357Z,23.71
2018-06-09T05:19:06.966Z,23.71
2018-06-09T05:19:38.550Z,23.71
2018-06-09T05:20:10.124Z,23.71
2018-06-09T05:20:41.746Z,23.71
2018-06-09T05:21:13.320Z,23.71
2018-06-09T05:21:44.950Z,23.70
2018-06-09T05:22:16.544Z,23.72
2018-06-09T05:22:48.116Z,23.71
2018-06-09T05:23:19.697Z,23.71
2018-06-09T05:23:51.301Z,23.71
2018-06-09T05:24:22.885Z,23.71
2018-06-09T05:24:54.460Z,23.72
2018-06-09T05:25:26.042Z,23.73
2018-06-09T05:25:57.645Z,23.72
2018-06-09T05:26:29.250Z,23.75
2018-06-09T05:27:00.868Z,23.73
2018-06-09T05:27:32.450Z,23.76
2018-06-09T05:28:04.064Z,23.76
2018-06-09T05:28:35.738Z,23.76
2018-06-09T05:29:07.356Z,23.75
2018-06-09T05:29:38.938Z,23.76
2018-06-09T05:30:10.524Z,23.76
2018-06-09T05:30:42.134Z,23.76
2018-06-09T05:31:13.718Z,23.75
2018-06-09T05:31:45.298Z,23.74
2018-06-09T05:32:16.943Z,23.74
2018-06-09T05:32:48.530Z,23.74
2018-06-09T05:33:20.169Z,23.74
2018-06-09T05:33:51.754Z,23.74
2018-06-09T05:34:23.348Z,23.74
2018-06-09T05:34:54.943Z,23.74
2018-06-09T05:35:26.534Z,23.74
2018-06-09T05:35:58.099Z,23.76
2018-06-09T05:36:29.709Z,23.76
2018-06-09T05:37:01.321Z,23.77
2018-06-09T05:37:32.920Z,23.77
2018-06-09T05:38:04.534Z,23.77
2018-06-09T05:38:36.141Z,23.77
2018-06-09T05:39:07.786Z,23.78
2018-06-09T05:39:39.476Z,23.77
2018-06-09T05:40:11.068Z,23.77
2018-06-09T05:40:42.640Z,23.77
2018-06-09T05:41:14.231Z,23.77
2018-06-09T05:41:45.814Z,23.76
2018-06-09T05:42:17.397Z,23.76
2018-06-09T05:42:48.978Z,23.76
2018-06-09T05:43:20.621Z,23.75
2018-06-09T05:43:52.202Z,23.75
2018-06-09T05:44:23.785Z,23.76
2018-06-09T05:44:55.351Z,23.76
2018-06-09T05:45:26.930Z,23.78
2018-06-09T05:45:58.500Z,23.80
2018-06-09T05:46:30.110Z,23.81
2018-06-09T05:47:01.722Z,23.81
2018-06-09T05:47:33.309Z,23.80
2018-06-09T05:48:04.949Z,23.80
2018-06-09T05:48:36.553Z,23.80
2018-06-09T05:49:08.138Z,23.79
2018-06-09T05:49:39.721Z,23.77
2018-06-09T05:50:12.274Z,23.79
2018-06-09T05:50:43.869Z,23.79
2018-06-09T05:51:15.457Z,23.79
2018-06-09T05:51:47.066Z,23.79
2018-06-09T05:52:18.678Z,23.78
2018-06-09T05:52:50.269Z,23.79
2018-06-09T05:53:21.895Z,23.78
2018-06-09T05:53:53.487Z,23.78
2018-06-09T05:54:25.950Z,23.77
2018-06-09T05:54:57.903Z,23.67
2018-06-09T05:55:29.482Z,23.78
2018-06-09T05:56:01.090Z,23.83
2018-06-09T05:56:32.720Z,23.83
2018-06-09T05:57:04.303Z,23.83
2018-06-09T05:57:35.921Z,23.83
2018-06-09T05:58:07.816Z,23.83
2018-06-09T05:58:39.410Z,23.83
2018-06-09T05:59:11.008Z,23.83
2018-06-09T05:59:42.599Z,23.81
2018-06-09T06:00:14.177Z,23.80
2018-06-09T06:00:45.777Z,23.78
2018-06-09T06:01:17.372Z,23.77
2018-06-09T06:01:48.999Z,23.76
2018-06-09T06:02:20.590Z,23.77
2018-06-09T06:02:52.173Z,23.77
2018-06-09T06:03:23.817Z,23.77
2018-06-09T06:03:55.473Z,23.75
2018-06-09T06:04:27.060Z,23.74
2018-06-09T06:04:58.655Z,23.73
2018-06-09T06:05:30.246Z,23.73
2018-06-09T06:06:01.818Z,23.73
2018-06-09T06:06:33.391Z,23.74
2018-06-09T06:07:04.978Z,23.73
2018-06-09T06:07:36.557Z,23.73
2018-06-09T06:08:08.138Z,23.72
2018-06-09T06:08:39.727Z,23.72
2018-06-09T06:09:11.361Z,23.73
2018-06-09T06:09:42.962Z,23.73
2018-06-09T06:10:14.545Z,23.73
2018-06-09T06:10:46.146Z,23.73
2018-06-09T06:11:17.757Z,23.73
2018-06-09T06:11:49.346Z,23.73
2018-06-09T06:12:20.954Z,23.72
2018-06-09T06:12:52.571Z,23.73
2018-06-09T06:13:24.185Z,23.73
2018-06-09T06:13:55.793Z,23.72
2018-06-09T06:14:27.419Z,23.72
2018-06-09T06:14:59.013Z,23.71
2018-06-09T06:15:30.602Z,23.71
2018-06-09T06:16:02.190Z,23.72
2018-06-09T06:16:33.784Z,23.73
2018-06-09T06:17:05.412Z,23.72
2018-06-09T06:17:36.980Z,23.71
2018-06-09T06:18:08.548Z,23.72
2018-06-09T06:18:40.139Z,23.72
2018-06-09T06:19:11.749Z,23.74
2018-06-09T06:19:43.333Z,23.76
2018-06-09T06:20:14.922Z,23.78
2018-06-09T06:20:46.521Z,23.79
2018-06-09T06:21:18.126Z,23.79
2018-06-09T06:21:49.777Z,23.76
2018-06-09T06:22:21.349Z,23.78
2018-06-09T06:22:52.954Z,23.78
2018-06-09T06:23:24.567Z,23.76
2018-06-09T06:23:56.156Z,23.78
2018-06-09T06:24:27.806Z,23.78
2018-06-09T06:24:59.403Z,23.78
2018-06-09T06:25:30.990Z,23.77
2018-06-09T06:26:02.580Z,23.77
2018-06-09T06:26:34.166Z,23.78
2018-06-09T06:27:05.765Z,23.79
2018-06-09T06:27:37.373Z,23.79
2018-06-09T06:28:08.961Z,23.79
2018-06-09T06:28:40.540Z,23.79
2018-06-09T06:29:12.132Z,23.78
2018-06-09T06:29:43.704Z,23.78
2018-06-09T06:30:15.313Z,23.77
2018-06-09T06:30:46.941Z,23.78
2018-06-09T06:31:18.536Z,23.78
2018-06-09T06:31:50.119Z,23.79
2018-06-09T06:32:21.766Z,23.78
2018-06-09T06:32:53.397Z,23.78
2018-06-09T06:33:24.990Z,23.79
2018-06-09T06:33:56.560Z,23.81
2018-06-09T06:34:28.170Z,23.84
2018-06-09T06:34:59.750Z,23.87
2018-06-09T06:35:31.353Z,23.88
2018-06-09T06:36:03.266Z,23.93
2018-06-09T06:36:35.749Z,23.94
2018-06-09T06:37:07.320Z,23.96
2018-06-09T06:37:38.909Z,23.97
2018-06-09T06:38:11.142Z,23.95
2018-06-09T06:38:42.743Z,23.98
2018-06-09T06:39:14.349Z,24.06
2018-06-09T06:39:45.928Z,24.10
2018-06-09T06:40:17.915Z,24.13
2018-06-09T06:40:49.525Z,24.09
2018-06-09T06:41:21.104Z,24.09
2018-06-09T06:41:52.700Z,24.05
2018-06-09T06:42:24.294Z,24.01
2018-06-09T06:42:55.873Z,23.96
2018-06-09T06:43:27.541Z,23.99
2018-06-09T06:43:59.132Z,24.03
2018-06-09T06:44:30.708Z,24.02
2018-06-09T06:45:02.330Z,23.99
2018-06-09T06:45:33.907Z,23.96
2018-06-09T06:46:05.499Z,23.93
2018-06-09T06:46:37.073Z,23.90
2018-06-09T06:47:08.718Z,23.88